createdAt,value
2018-07-13T00:02:13.656Z,23.2
2018-07-13T00:12:12.890Z,23.4
2018-07-13T00:22:12.125Z,23.5
2018-07-13T00:32:11.361Z,23.5
2018-07-13T00:42:10.599Z,23.4
2018-07-13T00:52:09.833Z,23.4
2018-07-13T01:02:09.074Z,23.4
2018-07-13T01:12:08.317Z,23.4
2018-07-13T01:22:07.541Z,23.4
2018-07-13T01:32:06.776Z,23.3
2018-07-13T01:42:06.014Z,23.3
2018-07-13T01:52:05.245Z,23.3
2018-07-13T02:02:04.480Z,23.2
2018-07-13T02:12:03.717Z,23.2
2018-07-13T02:22:02.953Z,23.1
2018-07-13T02:32:02.187Z,23.1
2018-07-13T02:42:01.430Z,23.1
2018-07-13T02:52:00.656Z,23
2018-07-13T03:01:59.897Z,23
2018-07-13T03:11:59.137Z,22.9
2018-07-13T03:21:58.391Z,22.8
2018-07-13T03:31:57.604Z,22.6
2018-07-13T03:41:56.837Z,22.7
2018-07-13T03:51:56.071Z,22.8
2018-07-13T04:01:55.310Z,22.9
2018-07-13T04:11:54.544Z,23.1
2018-07-13T04:21:53.783Z,23.2
2018-07-13T04:31:53.023Z,23.5
2018-07-13T04:41:52.252Z,23.7
2018-07-13T04:51:51.488Z,23.9
2018-07-13T05:01:50.804Z,24.1
2018-07-13T05:11:49.963Z,24.6
2018-07-13T05:21:49.200Z,24.3
2018-07-13T05:31:48.438Z,24.4
2018-07-13T05:41:47.681Z,24.8
2018-07-13T05:51:46.915Z,24.9
2018-07-13T06:01:46.150Z,25.5
2018-07-13T06:11:45.386Z,24.8
2018-07-13T06:21:44.629Z,25
2018-07-13T06:31:43.861Z,26.2
2018-07-13T06:41:43.098Z,25.8
2018-07-13T06:51:42.367Z,25.6
2018-07-13T07:01:41.572Z,25.5
2018-07-13T07:11:40.812Z,25.9
2018-07-13T07:21:40.041Z,26.3
2018-07-13T07:31:39.281Z,26.3
2018-07-13T07:41:38.564Z,26.4
2018-07-13T07:51:37.761Z,27.1
2018-07-13T08:01:37.037Z,28
2018-07-13T08:11:36.226Z,27.9
2018-07-13T08:21:35.461Z,27.6
2018-07-13T08:31:34.703Z,27.8
2018-07-13T08:41:33.933Z,28.4
2018-07-13T08:51:33.179Z,28.8
2018-07-13T09:01:32.413Z,28.1
2018-07-13T09:11:31.651Z,28.6
2018-07-13T09:21:30.881Z,28.4
2018-07-13T09:31:30.125Z,28.3
2018-07-13T09:41:29.363Z,28
2018-07-13T09:51:28.604Z,27.9
2018-07-13T10:01:27.838Z,27.9
2018-07-13T10:11:27.074Z,27.4
2018-07-13T10:21:26.318Z,27.3
2018-07-13T10:31:25.551Z,27.2
2018-07-13T10:41:24.798Z,27.1
2018-07-13T10:51:24.066Z,27
2018-07-13T11:01:23.271Z,27
2018-07-13T11:11:22.517Z,26.9
2018-07-13T11:21:21.756Z,26.9
2018-07-13T11:31:20.995Z,26.8
2018-07-13T11:41:20.230Z,26.8
2018-07-13T11:51:19.476Z,26.7
2018-07-13T12:01:18.709Z,27.2
2018-07-13T12:11:17.948Z,26.6
2018-07-13T12:21:17.193Z,26.4
2018-07-13T12:31:16.421Z,26
2018-07-13T12:41:15.659Z,26.1
2018-07-13T12:51:14.897Z,25.2
2018-07-13T13:01:14.135Z,25.4
2018-07-13T13:11:13.378Z,25.5
2018-07-13T13:21:12.616Z,25.1
2018-07-13T13:31:11.849Z,26.1
2018-07-13T13:41:11.090Z,25.7
2018-07-13T13:51:10.320Z,25.6
2018-07-13T14:01:09.557Z,26.1
2018-07-13T14:11:08.794Z,25.9
2018-07-13T14:21:08.030Z,27.1
2018-07-13T14:31:07.267Z,27.1
2018-07-13T14:41:06.556Z,25.4
2018-07-13T14:51:05.745Z,25.4
2018-07-13T15:01:04.984Z,26.1
2018-07-13T15:11:04.225Z,27.5
2018-07-13T15:21:03.458Z,26.3
2018-07-13T15:31:02.697Z,26.4
2018-07-13T15:41:01.934Z,26
2018-07-13T15:51:01.170Z,27.4
2018-07-13T16:01:00.414Z,27.8
2018-07-13T16:10:59.644Z,27.3
2018-07-13T16:20:58.883Z,26.9
2018-07-13T16:30:58.123Z,26.8
2018-07-13T16:40:57.359Z,26.7
2018-07-13T16:50:56.636Z,26.5
2018-07-13T17:00:55.840Z,26.3
2018-07-13T17:10:55.079Z,26.3
2018-07-13T17:20:54.318Z,26.3
2018-07-13T17:30:53.555Z,25.9
2018-07-13T17:40:52.797Z,25.8
2018-07-13T17:50:52.040Z,25.3
2018-07-13T18:00:51.458Z,25.2
2018-07-13T18:10:50.514Z,24.9
2018-07-13T18:20:49.756Z,24.1
2018-07-13T18:30:48.993Z,24.1
2018-07-13T18:40:48.237Z,24.2
2018-07-13T18:50:47.482Z,23.8
2018-07-13T19:00:46.713Z,23.8
2018-07-13T19:10:45.952Z,24
2018-07-13T19:20:45.190Z,23.9
2018-07-13T19:30:44.533Z,23.8
2018-07-13T19:40:43.726Z,23.7
2018-07-13T19:50:42.907Z,23.6
2018-07-13T20:00:42.148Z,23.4
2018-07-13T20:10:41.388Z,23.4
2018-07-13T20:20:40.626Z,23.3
2018-07-13T20:30:39.872Z,23.4
2018-07-13T20:40:39.109Z,23.5
2018-07-13T20:50:38.349Z,23.6
2018-07-13T21:00:37.584Z,23.6
2018-07-13T21:10:36.824Z,23.6
2018-07-13T21:20:36.065Z,23.6
2018-07-13T21:30:35.304Z,23.7
2018-07-13T21:40:34.544Z,23.8
2018-07-13T21:50:33.782Z,23.7
2018-07-13T22:00:33.019Z,23.8
2018-07-13T22:10:32.262Z,23.8
2018-07-13T22:20:31.496Z,23.8
2018-07-13T22:30:30.733Z,23.8
2018-07-13T22:40:30.040Z,23.7
2018-07-13T22:50:29.212Z,23.7
2018-07-13T23:00:28.454Z,23.6
2018-07-13T23:10:27.696Z,23.6
2018-07-13T23:20:26.927Z,23.5
2018-07-13T23:30:26.166Z,23.6
2018-07-13T23:40:25.403Z,23.6
2018-07-13T23:50:24.641Z,23.6
